Time;durP1;ratioP1;P1;durP2;ratioP2;P2;SDS_P1;SDS_P2;PMS_P1;PMS_P2;Temp;Humidity;BMP_temperature;BMP_pressure;BME280_temperature;BME280_humidity;BME280_pressure;Samples;Min_cycle;Max_cycle;Signal;HPM_P1;HPM_P2
2023/07/30 00:00:18;;;;;;;11.17;2.67;;;;;;;14.15;100.00;100767.47;4787318;30;20500;-92
2023/07/30 00:02:47;;;;;;;15.10;2.25;;;;;;;14.16;100.00;100766.41;4788136;30;20154;-92
2023/07/30 00:05:13;;;;;;;9.93;2.28;;;;;;;14.14;100.00;100765.84;4787701;30;20050;-92
2023/07/30 00:07:41;;;;;;;8.97;2.60;;;;;;;14.14;100.00;100773.19;4788041;30;20481;-92
2023/07/30 00:10:09;;;;;;;9.30;2.15;;;;;;;14.15;100.00;100767.47;4787320;30;20382;-92
2023/07/30 00:12:42;;;;;;;6.78;2.40;;;;;;;14.13;100.00;100775.09;4790259;30;20043;-92
2023/07/30 00:15:12;;;;;;;7.35;2.42;;;;;;;14.12;100.00;100773.41;4775360;30;20058;-92
2023/07/30 00:17:38;;;;;;;6.60;2.17;;;;;;;14.08;100.00;100764.06;4789941;30;20031;-92
2023/07/30 00:20:05;;;;;;;6.03;2.55;;;;;;;14.05;100.00;100764.53;4790117;30;20058;-92
2023/07/30 00:22:33;;;;;;;10.70;3.17;;;;;;;14.02;100.00;100760.41;4789928;30;20051;-92
2023/07/30 00:24:58;;;;;;;10.57;2.17;;;;;;;14.00;100.00;100762.53;4789897;30;20069;-93
2023/07/30 00:27:26;;;;;;;10.67;2.97;;;;;;;13.98;100.00;100772.03;4789892;30;20073;-92
2023/07/30 00:29:54;;;;;;;6.47;2.88;;;;;;;13.95;100.00;100772.50;4789573;30;20032;-92
2023/07/30 00:33:42;;;;;;;9.33;2.67;;;;;;;13.93;100.00;100771.94;5097552;27;1659094;-91
2023/07/30 00:36:10;;;;;;;11.67;2.90;;;;;;;13.88;100.00;100769.91;5131280;28;20024;-91
2023/07/30 00:38:39;;;;;;;7.47;2.88;;;;;;;13.86;100.00;100781.06;5131591;28;20401;-91
2023/07/30 00:41:09;;;;;;;10.68;2.88;;;;;;;13.83;100.00;100775.25;5131335;28;20127;-91
2023/07/30 00:43:37;;;;;;;8.60;2.35;;;;;;;13.78;100.00;100772.41;5132376;27;20031;-91
2023/07/30 00:46:03;;;;;;;5.90;2.30;;;;;;;13.78;100.00;100761.50;5131379;28;20422;-91
2023/07/30 00:48:41;;;;;;;7.53;2.45;;;;;;;13.79;100.00;100772.19;5131286;28;20084;-91
2023/07/30 00:51:08;;;;;;;9.55;2.67;;;;;;;13.78;100.00;100791.50;5131219;28;20031;-91
2023/07/30 00:53:37;;;;;;;13.23;2.88;;;;;;;13.77;100.00;100781.66;5131385;28;20035;-91
2023/07/30 00:56:03;;;;;;;8.90;2.97;;;;;;;13.76;100.00;100786.28;5131119;28;20360;-91
2023/07/30 00:58:35;;;;;;;5.00;2.88;;;;;;;13.75;100.00;100786.53;5130775;28;20020;-91
2023/07/30 01:01:04;;;;;;;10.23;2.90;;;;;;;13.76;100.00;100790.91;5130958;28;20066;-91
2023/07/30 01:03:32;;;;;;;9.45;3.35;;;;;;;13.74;100.00;100793.88;5129482;28;20039;-92
2023/07/30 01:06:04;;;;;;;8.55;3.00;;;;;;;13.73;100.00;100792.22;5130835;28;20032;-90
2023/07/30 01:08:36;;;;;;;10.93;3.13;;;;;;;13.74;100.00;100799.31;5131796;28;20115;-92
2023/07/30 01:11:04;;;;;;;9.18;2.80;;;;;;;13.75;100.00;100800.16;5130709;28;20481;-91
2023/07/30 01:13:32;;;;;;;9.10;2.78;;;;;;;13.76;100.00;100805.38;5130275;28;20483;-91
2023/07/30 01:16:06;;;;;;;10.70;3.17;;;;;;;13.77;100.00;100801.56;5130394;28;20076;-91
2023/07/30 01:18:37;;;;;;;11.77;3.10;;;;;;;13.80;100.00;100816.63;5131522;28;20481;-91
2023/07/30 01:21:12;;;;;;;8.00;2.87;;;;;;;13.81;100.00;100816.38;5113905;28;20122;-91
2023/07/30 01:23:38;;;;;;;6.88;2.60;;;;;;;13.81;100.00;100823.75;5130580;28;20027;-91
2023/07/30 01:26:24;;;;;;;8.35;2.42;;;;;;;13.84;100.00;100815.91;5130533;28;20061;-92
2023/07/30 01:28:56;;;;;;;9.47;2.83;;;;;;;13.81;100.00;100813.66;5130713;28;20096;-91
2023/07/30 01:31:28;;;;;;;12.32;3.42;;;;;;;13.77;100.00;100812.47;5130681;28;20030;-91
2023/07/30 01:33:55;;;;;;;12.23;3.00;;;;;;;13.74;100.00;100823.84;5130251;27;20052;-91
2023/07/30 01:36:26;;;;;;;9.95;2.65;;;;;;;13.74;100.00;100826.59;5130148;28;20487;-91
2023/07/30 01:38:57;;;;;;;8.23;3.10;;;;;;;13.72;100.00;100831.47;5130371;28;20031;-91
2023/07/30 01:41:24;;;;;;;10.97;2.67;;;;;;;13.69;100.00;100830.03;5129783;28;20024;-91
2023/07/30 01:43:57;;;;;;;8.60;3.03;;;;;;;13.66;100.00;100822.31;5122770;28;20024;-91
2023/07/30 01:46:23;;;;;;;11.00;2.97;;;;;;;13.64;100.00;100837.25;5116152;28;20078;-91
2023/07/30 01:48:48;;;;;;;11.77;3.20;;;;;;;13.62;100.00;100829.31;5116249;28;20407;-91
2023/07/30 01:51:14;;;;;;;9.65;3.33;;;;;;;13.59;100.00;100834.41;5099321;28;20034;-91
2023/07/30 01:53:39;;;;;;;10.37;2.83;;;;;;;13.57;100.00;100839.25;5116159;28;20069;-91
2023/07/30 01:56:07;;;;;;;7.50;2.73;;;;;;;13.55;100.00;100831.31;5099486;28;20034;-91
2023/07/30 01:58:38;;;;;;;9.55;3.03;;;;;;;13.53;100.00;100841.63;5099074;28;20395;-91
2023/07/30 02:01:03;;;;;;;8.00;3.05;;;;;;;13.50;100.00;100837.47;5116183;28;20054;-91
2023/07/30 02:03:37;;;;;;;10.73;2.87;;;;;;;13.50;100.00;100840.19;5116263;28;20471;-91
2023/07/30 02:06:05;;;;;;;8.95;2.55;;;;;;;13.51;100.00;100836.41;5115972;28;20035;-91
2023/07/30 02:08:34;;;;;;;12.75;3.85;;;;;;;13.56;100.00;100837.63;5115902;28;20024;-92
2023/07/30 02:11:12;;;;;;;9.57;2.97;;;;;;;13.56;100.00;100832.97;5116736;28;20031;-91
2023/07/30 02:13:38;;;;;;;10.30;2.93;;;;;;;13.61;100.00;100832.28;5100356;28;20027;-90
2023/07/30 02:19:21;;;;;;;15.73;3.22;;;;;;;13.64;100.00;100820.88;5113215;28;20040;-91
2023/07/30 02:21:57;;;;;;;8.80;2.70;;;;;;;13.67;100.00;100825.88;5097953;28;20130;-91
2023/07/30 02:24:28;;;;;;;11.40;3.25;;;;;;;13.66;100.00;100816.88;5116123;28;20035;-91
2023/07/30 02:26:55;;;;;;;12.23;3.13;;;;;;;13.69;100.00;100815.56;5115534;28;20028;-92
2023/07/30 02:29:23;;;;;;;12.73;3.47;;;;;;;13.74;100.00;100820.31;5098953;28;20028;-91
2023/07/30 02:31:51;;;;;;;10.43;3.00;;;;;;;13.79;100.00;100828.59;5114923;28;20024;-91
2023/07/30 02:34:17;;;;;;;12.90;3.80;;;;;;;13.83;100.00;100824.34;5098925;28;20122;-91
2023/07/30 02:36:42;;;;;;;14.18;3.85;;;;;;;13.86;100.00;100824.69;5115064;28;20071;-91
2023/07/30 02:39:24;;;;;;;17.87;3.40;;;;;;;13.90;100.00;100818.78;5115017;28;20031;-92
2023/07/30 02:41:51;;;;;;;12.10;2.75;;;;;;;13.95;100.00;100814.25;5098830;28;20146;-91
2023/07/30 02:44:17;;;;;;;13.85;3.60;;;;;;;13.95;100.00;100817.00;5098034;28;20039;-91
2023/07/30 02:46:48;;;;;;;11.53;3.37;;;;;;;14.01;100.00;100826.09;5115222;28;20046;-91
2023/07/30 02:49:16;;;;;;;10.95;3.50;;;;;;;14.00;100.00;100817.09;5098095;28;20035;-91
2023/07/30 02:51:48;;;;;;;12.63;3.47;;;;;;;14.02;100.00;100822.31;5116134;28;20024;-91
2023/07/30 02:54:24;;;;;;;;;;;;;;;;;;;;;
2023/07/30 02:56:57;;;;;;;12.40;3.57;;;;;;;14.03;100.00;100827.53;5116206;28;20031;-90
2023/07/30 02:59:25;;;;;;;14.85;3.20;;;;;;;14.03;100.00;100821.25;5115243;28;20142;-91
2023/07/30 03:01:53;;;;;;;13.07;3.10;;;;;;;14.02;100.00;100817.69;5115609;28;20077;-91
2023/07/30 03:04:26;;;;;;;7.43;2.88;;;;;;;14.03;100.00;100822.06;5114905;28;20035;-91
2023/07/30 03:06:52;;;;;;;12.07;3.50;;;;;;;14.04;100.00;100823.72;5114857;28;20424;-92
2023/07/30 03:09:23;;;;;;;10.20;3.50;;;;;;;14.06;100.00;100817.22;5097500;28;20038;-91
2023/07/30 03:11:51;;;;;;;15.32;3.67;;;;;;;14.07;100.00;100819.72;5115022;28;20035;-91
2023/07/30 03:14:23;;;;;;;9.93;3.03;;;;;;;14.10;100.00;100821.94;5115525;28;20133;-91
2023/07/30 03:17:04;;;;;;;20.67;3.47;;;;;;;14.12;100.00;100827.16;5114276;28;20123;-91
2023/07/30 03:19:30;;;;;;;17.67;3.25;;;;;;;14.12;100.00;100818.97;5099070;28;20039;-92
2023/07/30 03:21:58;;;;;;;11.35;2.83;;;;;;;14.13;100.00;100823.34;5114354;28;20027;-91
2023/07/30 03:24:24;;;;;;;16.17;3.95;;;;;;;14.14;100.00;100825.03;5114440;28;20088;-92
2023/07/30 03:26:50;;;;;;;12.70;2.83;;;;;;;14.15;100.00;100822.03;5114308;28;20027;-91
2023/07/30 03:29:16;;;;;;;11.70;3.10;;;;;;;14.16;100.00;100822.91;5114567;28;20054;-92
2023/07/30 03:31:50;;;;;;;10.00;3.20;;;;;;;14.16;100.00;100823.72;5114415;28;20031;-91
2023/07/30 03:34:16;;;;;;;14.20;3.33;;;;;;;14.17;100.00;100828.13;5114692;28;20043;-92
2023/07/30 03:36:41;;;;;;;16.17;3.07;;;;;;;14.19;100.00;100823.22;5097642;28;20043;-91
2023/07/30 03:39:11;;;;;;;9.32;2.90;;;;;;;14.20;100.00;100824.06;5097437;28;20074;-91
2023/07/30 03:41:37;;;;;;;14.23;3.00;;;;;;;14.21;100.00;100823.81;5114557;28;20382;-91
2023/07/30 03:44:04;;;;;;;14.95;3.65;;;;;;;14.24;100.00;100835.34;5114208;28;20035;-91
2023/07/30 03:46:32;;;;;;;11.38;3.78;;;;;;;14.23;100.00;100831.75;5113682;28;20041;-91
2023/07/30 03:48:58;;;;;;;14.70;3.30;;;;;;;14.24;100.00;100835.34;5113707;28;20031;-91
2023/07/30 03:51:25;;;;;;;13.02;3.63;;;;;;;14.24;100.00;100846.25;5114079;28;20027;-91
2023/07/30 03:53:51;;;;;;;18.90;3.23;;;;;;;14.26;100.00;100833.19;5113968;28;20031;-90
2023/07/30 03:56:16;;;;;;;14.63;3.67;;;;;;;14.24;100.00;100847.06;5113972;28;20031;-91
2023/07/30 03:58:42;;;;;;;12.07;3.50;;;;;;;14.27;100.00;100845.78;5113803;28;20026;-91
2023/07/30 04:01:08;;;;;;;9.63;3.30;;;;;;;14.27;100.00;100848.50;5113519;28;20078;-91
2023/07/30 04:03:45;;;;;;;13.95;2.90;;;;;;;14.28;100.00;100850.97;5096501;28;20043;-91
2023/07/30 04:06:13;;;;;;;13.55;3.83;;;;;;;14.29;100.00;100849.06;5113087;28;20039;-91
2023/07/30 04:08:38;;;;;;;16.50;3.35;;;;;;;14.29;100.00;100847.19;5113627;28;20387;-91
2023/07/30 04:11:07;;;;;;;14.37;3.13;;;;;;;14.28;100.00;100848.25;5113287;28;20023;-91
2023/07/30 04:13:33;;;;;;;12.45;3.50;;;;;;;14.28;100.00;100852.91;5113178;28;20460;-91
2023/07/30 04:15:58;;;;;;;14.13;3.60;;;;;;;14.28;100.00;100839.25;5113405;28;20046;-91
2023/07/30 04:18:24;;;;;;;13.57;3.63;;;;;;;14.27;100.00;100852.03;5113335;28;20024;-92
2023/07/30 04:20:56;;;;;;;15.70;4.00;;;;;;;14.28;100.00;100855.63;5113452;28;20070;-91
2023/07/30 04:23:25;;;;;;;16.38;3.78;;;;;;;14.31;100.00;100846.94;5113737;28;20027;-91
2023/07/30 04:25:50;;;;;;;16.37;4.57;;;;;;;14.33;100.00;100859.25;5114019;28;20495;-91
2023/07/30 04:28:18;;;;;;;17.45;4.00;;;;;;;14.35;100.00;100843.50;5113351;28;20039;-91
2023/07/30 04:30:46;;;;;;;21.23;4.53;;;;;;;14.37;100.00;100849.53;5097176;28;20376;-91
2023/07/30 04:33:13;;;;;;;14.40;4.45;;;;;;;14.39;100.00;100841.09;5112906;28;20043;-91
2023/07/30 04:35:47;;;;;;;14.23;4.07;;;;;;;14.41;100.00;100849.91;5096449;28;20111;-91
2023/07/30 04:38:12;;;;;;;18.17;4.88;;;;;;;14.44;100.00;100851.28;5113192;28;20173;-91
2023/07/30 04:40:39;;;;;;;20.57;4.80;;;;;;;14.47;100.00;100848.09;5112890;28;20023;-92
2023/07/30 04:43:08;;;;;;;16.00;4.83;;;;;;;14.51;100.00;100850.09;5113192;28;20669;-91
2023/07/30 04:45:36;;;;;;;20.08;5.25;;;;;;;14.54;100.00;100848.78;5096968;28;20059;-91
2023/07/30 04:48:07;;;;;;;24.67;5.22;;;;;;;14.60;100.00;100846.97;5112773;28;20080;-91
2023/07/30 04:50:32;;;;;;;16.80;5.22;;;;;;;14.65;100.00;100845.22;5096138;28;20034;-91
2023/07/30 04:53:01;;;;;;;17.57;4.60;;;;;;;14.71;100.00;100849.69;5113065;28;20028;-91
2023/07/30 04:55:29;;;;;;;19.15;4.75;;;;;;;14.78;100.00;100851.47;5097120;28;20440;-91
2023/07/30 04:57:55;;;;;;;18.38;5.07;;;;;;;14.81;100.00;100856.47;5113367;28;20055;-91
2023/07/30 05:00:20;;;;;;;18.17;4.57;;;;;;;14.82;100.00;100852.63;5113212;28;20455;-91
2023/07/30 05:02:46;;;;;;;18.57;5.20;;;;;;;14.85;100.00;100853.00;5113105;28;20028;-92
2023/07/30 05:05:11;;;;;;;19.40;5.80;;;;;;;14.89;100.00;100861.53;5113332;28;20023;-92
2023/07/30 05:07:37;;;;;;;17.60;5.18;;;;;;;14.90;100.00;100863.19;5113083;28;20036;-91
2023/07/30 05:10:05;;;;;;;18.97;4.77;;;;;;;14.95;100.00;100874.19;5113702;28;20482;-92
2023/07/30 05:12:33;;;;;;;17.70;5.43;;;;;;;14.94;100.00;100875.28;5113147;28;20161;-91
2023/07/30 05:14:59;;;;;;;20.30;4.80;;;;;;;14.95;100.00;100876.09;5113147;28;20360;-92
2023/07/30 05:17:27;;;;;;;21.65;4.82;;;;;;;14.94;100.00;100878.03;5095362;28;20118;-91
2023/07/30 05:19:52;;;;;;;18.83;4.85;;;;;;;14.94;100.00;100885.38;5116126;28;20031;-91
2023/07/30 05:22:25;;;;;;;22.37;5.50;;;;;;;14.99;100.00;100882.75;5117060;28;20034;-91
2023/07/30 05:24:51;;;;;;;18.45;4.97;;;;;;;15.02;100.00;100888.53;5116912;28;20024;-91
2023/07/30 05:27:16;;;;;;;20.17;5.37;;;;;;;15.03;100.00;100887.47;5116120;28;20551;-85
2023/07/30 05:29:42;;;;;;;20.63;4.70;;;;;;;15.08;100.00;100884.00;5118086;28;20038;-86
2023/07/30 05:32:09;;;;;;;22.10;5.47;;;;;;;15.12;100.00;100882.44;5115625;28;20421;-85
2023/07/30 05:34:34;;;;;;;14.95;4.72;;;;;;;15.15;100.00;100881.13;5117436;28;20043;-86
2023/07/30 05:37:01;;;;;;;19.47;4.63;;;;;;;15.21;100.00;100871.94;5116015;28;20031;-85
2023/07/30 05:39:26;;;;;;;25.23;4.93;;;;;;;15.25;100.00;100871.22;5116963;28;20399;-86
2023/07/30 05:41:52;;;;;;;20.53;5.23;;;;;;;15.29;100.00;100879.75;5116925;28;20073;-85
2023/07/30 05:44:17;;;;;;;22.30;5.03;;;;;;;15.30;100.00;100875.13;5098887;28;20122;-86
2023/07/30 05:46:43;;;;;;;22.73;4.47;;;;;;;15.32;100.00;100867.50;5116884;28;20458;-86
2023/07/30 05:49:08;;;;;;;16.50;4.60;;;;;;;15.34;100.00;100863.44;5116939;28;20031;-86
2023/07/30 05:51:34;;;;;;;21.23;5.55;;;;;;;15.39;100.00;100873.63;5116285;28;20023;-86
2023/07/30 05:53:59;;;;;;;22.47;4.23;;;;;;;15.44;100.00;100873.69;5115614;28;20096;-86
2023/07/30 05:56:25;;;;;;;17.80;5.03;;;;;;;15.53;100.00;100872.25;5115556;28;20418;-86
2023/07/30 05:58:50;;;;;;;19.20;4.70;;;;;;;15.53;100.00;100880.44;5115849;28;20106;-86
2023/07/30 06:01:16;;;;;;;21.90;4.70;;;;;;;15.57;100.00;100880.75;5098348;28;20039;-88
2023/07/30 06:03:41;;;;;;;20.30;5.40;;;;;;;15.61;100.00;100882.75;5116468;28;20063;-88
2023/07/30 06:06:07;;;;;;;15.27;3.97;;;;;;;15.70;100.00;100879.63;5116724;28;20024;-88
2023/07/30 06:08:32;;;;;;;20.27;4.70;;;;;;;15.75;100.00;100879.69;5116521;28;20024;-88
2023/07/30 06:11:05;;;;;;;30.40;6.23;;;;;;;15.71;100.00;100884.00;5116077;28;20086;-87
2023/07/30 06:13:31;;;;;;;16.85;5.30;;;;;;;15.67;100.00;100885.59;5115261;28;20459;-87
2023/07/30 06:15:56;;;;;;;29.23;5.50;;;;;;;15.66;100.00;100889.38;5115257;28;20057;-87
2023/07/30 06:18:22;;;;;;;19.40;5.07;;;;;;;15.62;100.00;100886.34;5114552;28;20065;-86
2023/07/30 06:20:47;;;;;;;22.67;6.47;;;;;;;15.66;100.00;100886.66;5115145;28;20757;-87
2023/07/30 06:23:13;;;;;;;20.20;5.10;;;;;;;15.64;100.00;100892.38;5116119;28;20038;-87
2023/07/30 06:25:38;;;;;;;21.53;5.37;;;;;;;15.66;100.00;100889.38;5114580;28;20422;-87
2023/07/30 06:28:06;;;;;;;20.30;5.32;;;;;;;15.74;100.00;100888.97;5115098;28;20487;-87
2023/07/30 06:30:32;;;;;;;17.73;5.63;;;;;;;15.82;100.00;100893.22;5082883;28;20028;-88
2023/07/30 06:32:58;;;;;;;20.90;5.22;;;;;;;15.87;100.00;100902.34;5114371;28;20056;-86
2023/07/30 06:35:25;;;;;;;27.53;5.17;;;;;;;15.88;100.00;100892.22;5098406;28;20052;-87
2023/07/30 06:37:51;;;;;;;24.98;5.28;;;;;;;15.99;100.00;100905.00;5115281;28;20024;-87
2023/07/30 06:40:18;;;;;;;20.27;4.97;;;;;;;16.06;100.00;100896.59;5097721;28;20031;-86
2023/07/30 06:42:44;;;;;;;21.67;5.05;;;;;;;16.15;100.00;100878.69;5113930;28;20047;-86
2023/07/30 06:45:09;;;;;;;23.17;4.80;;;;;;;16.22;100.00;100897.66;5114808;28;20043;-86
2023/07/30 06:47:35;;;;;;;21.30;5.00;;;;;;;16.27;100.00;100886.81;5113884;28;20588;-85
2023/07/30 06:50:00;;;;;;;19.23;4.20;;;;;;;16.30;100.00;100900.78;5116119;28;20081;-86
2023/07/30 06:52:25;;;;;;;20.23;5.17;;;;;;;16.35;100.00;100896.47;5115413;28;20496;-86
2023/07/30 06:54:51;;;;;;;18.33;4.17;;;;;;;16.34;100.00;100897.56;5115763;28;20110;-87
2023/07/30 06:57:16;;;;;;;17.57;4.57;;;;;;;16.34;100.00;100897.56;5115710;28;20378;-86
2023/07/30 06:59:42;;;;;;;19.10;4.37;;;;;;;16.34;100.00;100901.09;5114748;28;20270;-86
2023/07/30 07:02:07;;;;;;;25.50;4.97;;;;;;;16.33;100.00;100901.34;5114906;28;20035;-86
2023/07/30 07:04:33;;;;;;;18.77;4.47;;;;;;;16.31;100.00;100904.34;5114278;28;20028;-86
2023/07/30 07:06:58;;;;;;;18.52;3.95;;;;;;;16.34;100.00;100903.03;5115566;28;20466;-87
2023/07/30 07:09:23;;;;;;;18.33;4.30;;;;;;;16.36;100.00;100914.53;5097237;28;20023;-86
2023/07/30 07:11:49;;;;;;;25.20;4.20;;;;;;;16.29;100.00;100910.09;5113963;28;20023;-86
2023/07/30 07:14:14;;;;;;;23.07;4.00;;;;;;;16.24;100.00;100903.69;5097010;28;20494;-87
2023/07/30 07:16:40;;;;;;;19.50;4.13;;;;;;;16.21;100.00;100916.00;5113436;28;20327;-86
2023/07/30 07:19:05;;;;;;;19.57;4.03;;;;;;;16.26;100.00;100907.03;5115017;28;20288;-86
2023/07/30 07:21:31;;;;;;;19.08;4.70;;;;;;;16.40;100.00;100907.50;5114146;28;20089;-85
2023/07/30 07:23:56;;;;;;;21.30;4.67;;;;;;;16.53;100.00;100903.56;5096617;28;20035;-86
2023/07/30 07:26:22;;;;;;;21.13;4.10;;;;;;;16.64;100.00;100906.16;5096827;28;20027;-85
2023/07/30 07:28:47;;;;;;;18.87;3.20;;;;;;;16.79;100.00;100902.78;5097258;28;20067;-85
2023/07/30 07:31:15;;;;;;;18.43;3.50;;;;;;;16.92;100.00;100909.84;5114254;28;20031;-85
2023/07/30 07:33:41;;;;;;;17.38;3.78;;;;;;;17.13;100.00;100924.59;5113858;28;20131;-86
2023/07/30 07:36:07;;;;;;;18.03;3.43;;;;;;;17.36;100.00;100909.75;5113353;28;20111;-86
2023/07/30 07:38:34;;;;;;;20.45;3.42;;;;;;;17.75;100.00;100913.38;5096417;28;20390;-85
2023/07/30 07:41:01;;;;;;;21.23;3.55;;;;;;;17.82;100.00;100928.53;5112789;28;20032;-86
2023/07/30 07:43:33;;;;;;;15.80;3.30;;;;;;;17.66;100.00;100918.53;5114247;28;20027;-93
2023/07/30 07:46:09;;;;;;;19.38;3.88;;;;;;;17.56;100.00;100935.72;5081777;28;20092;-93
2023/07/30 07:48:38;;;;;;;17.77;3.37;;;;;;;17.38;100.00;100927.84;5098025;28;20043;-93
2023/07/30 07:51:03;;;;;;;18.05;3.50;;;;;;;17.44;100.00;100911.19;5114858;28;20410;-94
2023/07/30 07:53:34;;;;;;;18.65;3.75;;;;;;;17.55;100.00;100920.34;5114045;28;20020;-94
2023/07/30 07:56:23;;;;;;;17.40;3.20;;;;;;;17.58;100.00;100922.53;5114526;28;20023;-94
2023/07/30 07:58:51;;;;;;;17.88;3.45;;;;;;;17.64;100.00;100920.69;5114804;28;20063;-93
2023/07/30 08:01:30;;;;;;;;;;;;;;;;;;;;;
2023/07/30 08:04:02;;;;;;;16.05;3.03;;;;;;;17.91;99.62;100915.19;5115402;28;20379;-93
2023/07/30 08:06:41;;;;;;;20.23;3.08;;;;;;;18.01;99.29;100909.78;5114685;28;20066;-94
2023/07/30 08:09:06;;;;;;;17.17;3.33;;;;;;;18.00;96.44;100930.06;5098454;28;20038;-93
2023/07/30 08:11:37;;;;;;;12.50;3.03;;;;;;;18.02;97.71;100924.31;5113697;28;20023;-93
2023/07/30 08:14:08;;;;;;;15.30;3.30;;;;;;;18.37;97.13;100939.38;5114578;28;20035;-94
2023/07/30 08:16:36;;;;;;;17.70;3.00;;;;;;;18.58;94.14;100938.38;5114348;28;20019;-93
2023/07/30 08:19:04;;;;;;;16.00;2.80;;;;;;;18.54;93.24;100930.94;5094659;28;20483;-94
2023/07/30 08:21:30;;;;;;;13.00;3.13;;;;;;;18.20;93.37;100925.81;5096877;28;20020;-93
2023/07/30 08:24:01;;;;;;;16.70;3.40;;;;;;;18.08;95.75;100947.16;5114116;28;20452;-93
2023/07/30 08:26:38;;;;;;;19.95;3.67;;;;;;;18.05;94.62;100957.56;5114477;28;20023;-93
2023/07/30 08:29:13;;;;;;;19.70;3.03;;;;;;;18.00;94.53;100923.75;5114207;28;20115;-93
2023/07/30 08:31:43;;;;;;;16.33;3.08;;;;;;;18.05;94.43;100932.88;5098439;28;20028;-93
2023/07/30 08:34:20;;;;;;;23.20;4.15;;;;;;;18.04;93.65;100941.34;5113129;28;20055;-93
2023/07/30 08:36:56;;;;;;;17.67;3.10;;;;;;;17.99;94.05;100928.41;5098653;28;20464;-93
2023/07/30 08:39:50;;;;;;;20.30;3.45;;;;;;;18.08;93.23;100936.16;5113958;28;20024;-93
2023/07/30 08:42:25;;;;;;;16.17;3.83;;;;;;;17.95;92.90;100932.78;5114060;28;20115;-93
2023/07/30 08:44:54;;;;;;;15.82;3.28;;;;;;;17.89;93.92;100928.28;5096574;28;20047;-93
2023/07/30 08:47:34;;;;;;;19.33;3.50;;;;;;;17.83;95.24;100941.19;5114351;28;20022;-94
2023/07/30 08:50:23;;;;;;;;;;;;;;;;;;;;;
2023/07/30 08:52:52;;;;;;;16.33;3.33;;;;;;;17.14;100.00;100936.38;5114227;28;20034;-94
2023/07/30 08:55:36;;;;;;;16.48;3.50;;;;;;;16.77;100.00;100926.03;5117523;28;20028;-94
2023/07/30 08:58:03;;;;;;;17.52;3.70;;;;;;;16.59;100.00;100932.66;5117732;28;20031;-93
2023/07/30 09:00:51;;;;;;;24.58;3.80;;;;;;;16.72;100.00;100928.72;5117900;28;20031;-93
2023/07/30 09:03:17;;;;;;;17.87;3.93;;;;;;;17.04;100.00;100926.13;5118059;28;20104;-93
2023/07/30 09:05:43;;;;;;;22.10;4.32;;;;;;;17.42;100.00;100932.56;5117319;28;20134;-93
2023/07/30 09:08:22;;;;;;;;;;;;;;;;;;;;;
2023/07/30 09:10:55;;;;;;;11.77;3.17;;;;;;;18.07;96.48;100927.13;5118701;28;20031;-93
2023/07/30 09:13:27;;;;;;;13.77;3.13;;;;;;;18.40;93.91;100933.34;5100255;28;20032;-93
2023/07/30 09:16:02;;;;;;;15.27;2.83;;;;;;;18.36;92.40;100927.56;5116981;28;20040;-93
2023/07/30 09:18:37;;;;;;;18.65;3.40;;;;;;;18.32;90.42;100931.09;5116724;28;20024;-92
2023/07/30 09:21:03;;;;;;;13.95;2.65;;;;;;;18.42;89.51;100922.91;5117881;28;20032;-93
2023/07/30 09:23:42;;;;;;;12.33;3.07;;;;;;;18.71;89.15;100930.78;5117465;28;20034;-92
2023/07/30 09:26:13;;;;;;;11.88;2.75;;;;;;;18.82;85.14;100931.63;5117242;28;20024;-93
2023/07/30 09:28:47;;;;;;;11.25;2.70;;;;;;;18.79;85.89;100919.25;5117515;28;20031;-93
2023/07/30 09:31:16;;;;;;;10.77;2.83;;;;;;;18.88;84.12;100914.94;5099721;28;20030;-93
2023/07/30 09:33:54;;;;;;;10.63;2.77;;;;;;;19.14;84.10;100922.44;5116914;28;20059;-93
2023/07/30 09:36:32;;;;;;;12.80;2.08;;;;;;;19.32;79.21;100910.09;5101546;28;20066;-93
2023/07/30 09:39:01;;;;;;;11.85;2.38;;;;;;;19.45;80.93;100912.31;5117087;28;20443;-93
2023/07/30 09:41:26;;;;;;;11.50;2.70;;;;;;;19.64;78.56;100918.91;5117440;28;20024;-93
2023/07/30 09:44:05;;;;;;;8.93;2.03;;;;;;;19.82;79.34;100935.19;5116760;28;20024;-93
2023/07/30 09:46:44;;;;;;;9.18;2.38;;;;;;;19.83;77.66;100920.31;5116524;28;20035;-93
2023/07/30 09:49:10;;;;;;;10.25;2.15;;;;;;;19.85;78.29;100924.44;5117427;28;20599;-92
2023/07/30 09:51:41;;;;;;;10.93;2.10;;;;;;;20.07;76.44;100934.34;5116680;28;20027;-93
2023/07/30 09:54:08;;;;;;;8.03;2.37;;;;;;;20.24;76.85;100940.41;5116735;28;20272;-93
2023/07/30 09:57:01;;;;;;;9.32;2.63;;;;;;;20.21;77.19;100927.19;5117218;28;20032;-93
2023/07/30 09:59:42;;;;;;;12.20;2.55;;;;;;;20.07;75.65;100924.16;5116595;28;20038;-91
2023/07/30 10:02:10;;;;;;;13.40;2.50;;;;;;;19.90;76.04;100942.88;5100864;28;20483;-93
2023/07/30 10:05:44;;;;;;;;;;;;;;;;;;;;;
2023/07/30 10:08:28;;;;;;;11.97;2.77;;;;;;;19.70;76.64;100939.00;5049403;28;20040;-93
2023/07/30 10:10:55;;;;;;;11.48;2.00;;;;;;;19.59;75.67;100929.94;5084410;28;20038;-93
2023/07/30 10:13:24;;;;;;;8.32;2.60;;;;;;;19.42;76.32;100932.09;5115960;28;20030;-93
2023/07/30 10:16:02;;;;;;;9.93;2.28;;;;;;;19.43;77.11;100940.09;5099480;28;20030;-93
2023/07/30 10:18:57;;;;;;;11.68;2.30;;;;;;;19.53;75.68;100954.94;5117098;28;20103;-93
2023/07/30 10:21:38;;;;;;;9.17;2.20;;;;;;;19.96;73.70;100953.63;5116410;28;20026;-93
2023/07/30 10:24:19;;;;;;;10.02;2.00;;;;;;;20.31;73.21;100942.84;5115757;28;20028;-93
2023/07/30 10:26:59;;;;;;;10.23;2.10;;;;;;;20.57;74.31;100943.63;5099184;28;20027;-93
2023/07/30 10:29:43;;;;;;;5.35;1.80;;;;;;;20.75;70.62;100957.94;5115911;28;20062;-93
2023/07/30 10:32:18;;;;;;;;;;;;;;;;;;;;;
2023/07/30 10:34:47;;;;;;;5.87;1.67;;;;;;;20.27;68.98;100969.28;5117097;28;20048;-94
2023/07/30 10:37:27;;;;;;;10.65;2.00;;;;;;;20.11;70.54;100971.25;5115915;28;20073;-95
2023/07/30 10:39:56;;;;;;;6.78;1.90;;;;;;;20.14;70.95;100973.47;5116076;28;20024;-93
2023/07/30 10:42:21;;;;;;;7.13;1.80;;;;;;;20.55;69.43;100981.66;5115714;28;20559;-94
2023/07/30 10:44:53;;;;;;;7.80;1.67;;;;;;;20.92;68.27;100974.13;5115474;28;20027;-94
2023/07/30 10:47:59;;;;;;;;;;;;;;;;;;;;;
2023/07/30 10:51:27;;;;;;;;;;;;;;;;;;;;;
2023/07/30 10:54:04;;;;;;;9.20;2.00;;;;;;;20.81;67.76;100974.16;5104702;28;20084;-93
2023/07/30 10:56:42;;;;;;;6.50;1.70;;;;;;;20.65;69.17;100978.88;5115145;28;20467;-93
2023/07/30 10:59:10;;;;;;;8.35;1.67;;;;;;;20.42;68.44;100971.22;5115328;28;20024;-93
2023/07/30 11:01:38;;;;;;;9.43;1.70;;;;;;;20.17;69.04;100970.16;5114650;28;20047;-93
2023/07/30 11:04:15;;;;;;;7.20;1.60;;;;;;;20.09;70.51;100977.06;5115446;28;20055;-93
2023/07/30 11:06:54;;;;;;;7.72;1.70;;;;;;;19.81;73.33;100989.41;5116035;28;20035;-94
2023/07/30 11:09:24;;;;;;;8.67;1.73;;;;;;;19.40;75.44;100981.91;5116703;28;20100;-93
2023/07/30 11:12:10;;;;;;;7.15;2.05;;;;;;;19.25;78.62;100995.59;5098806;28;20034;-93
2023/07/30 11:14:35;;;;;;;4.47;1.55;;;;;;;19.13;79.92;100997.78;5099926;28;20023;-93
2023/07/30 11:17:03;;;;;;;8.10;1.90;;;;;;;19.03;80.58;100995.78;5113897;28;20110;-96
2023/07/30 11:19:33;;;;;;;5.65;1.85;;;;;;;19.02;79.51;100991.41;5114594;28;20028;-93
2023/07/30 11:21:59;;;;;;;12.82;2.13;;;;;;;19.18;78.05;101012.38;5098607;28;20027;-92
2023/07/30 11:24:42;;;;;;;10.20;1.73;;;;;;;20.18;77.06;100993.00;5114150;28;20023;-93
2023/07/30 11:27:08;;;;;;;7.70;1.50;;;;;;;21.35;68.78;100996.56;5114169;28;20024;-91
2023/07/30 11:29:37;;;;;;;8.40;1.88;;;;;;;22.85;66.02;100998.91;5114795;28;20054;-93
2023/07/30 11:32:05;;;;;;;4.30;1.40;;;;;;;24.02;58.73;101000.38;5114253;28;20023;-93
2023/07/30 11:34:38;;;;;;;4.97;1.60;;;;;;;23.99;58.87;100997.09;5113985;28;20134;-92
2023/07/30 11:37:05;;;;;;;5.45;1.42;;;;;;;23.35;58.88;101012.44;5113928;28;20035;-92
2023/07/30 11:39:31;;;;;;;11.65;1.70;;;;;;;22.82;59.62;101000.31;5114053;28;20035;-93
2023/07/30 11:42:05;;;;;;;6.13;1.83;;;;;;;22.39;61.01;101014.06;5114570;28;20073;-93